Terminal Aerodrome Forecast
Issued by NWS

Home | Current Version | Previous Version | Text Only | Print | Product List | Glossary On
Versions: 1 2 3 4 5 6 7 8 9 10 11 12 13 14 15 16 17
000
FTUS41 KGYX 040200 AAA
TAFAUG
TAF AMD
KAUG 040200Z 0402/0424 18009G17KT 1 1/2SM -SN BR OVC015
     FM040500 18009G17KT 1 1/2SM -SN BR OVC007
      TEMPO 0406/0410 -SN BR OVC003
     FM041000 22007KT 5SM -SHSN BR OVC015
     FM041200 24007KT P6SM SCT030 BKN100=

USA.gov is the U.S. government's official web portal to all federal, state and local government web resources and services.